Time;durP1;ratioP1;P1;durP2;ratioP2;P2;SDS_P1;SDS_P2;PMS_P1;PMS_P2;Temp;Humidity;BMP_temperature;BMP_pressure;BME280_temperature;BME280_humidity;BME280_pressure;Samples;Min_cycle;Max_cycle;Signal;HPM_P1;HPM_P2
2021/09/09 00:00:56;;;;;;;1999.90;999.90;;;;;;;;;;5031453;28;20489;-82
2021/09/09 00:03:23;;;;;;;1999.90;999.90;;;;;;;;;;5035071;28;20567;-83
2021/09/09 00:05:50;;;;;;;1999.90;999.90;;;;;;;;;;5034399;28;21116;-83
2021/09/09 00:08:18;;;;;;;1999.90;999.90;;;;;;;;;;5033437;28;20463;-82
2021/09/09 00:10:46;;;;;;;1999.90;999.90;;;;;;;;;;5034455;28;20448;-83
2021/09/09 00:13:13;;;;;;;1999.90;999.90;;;;;;;;;;5045554;28;20474;-83
2021/09/09 00:15:41;;;;;;;1999.90;999.90;;;;;;;;;;5054187;28;20552;-81
2021/09/09 00:18:08;;;;;;;1999.90;999.90;;;;;;;;;;5053250;28;20456;-82
2021/09/09 00:20:35;;;;;;;1999.90;999.90;;;;;;;;;;5053153;28;20862;-82
2021/09/09 00:23:02;;;;;;;1999.90;999.90;;;;;;;;;;5044858;28;20477;-82
2021/09/09 00:25:29;;;;;;;1999.90;999.90;;;;;;;;;;5033963;28;20461;-83
2021/09/09 00:27:58;;;;;;;1999.90;999.90;;;;;;;;;;5033312;28;20461;-82
2021/09/09 00:30:25;;;;;;;1999.90;999.90;;;;;;;;;;5033838;28;20544;-82
2021/09/09 00:32:52;;;;;;;1999.90;999.90;;;;;;;;;;5022914;28;20478;-82
2021/09/09 00:35:19;;;;;;;1999.90;999.90;;;;;;;;;;5034169;28;20454;-82
2021/09/09 00:37:47;;;;;;;1999.90;999.90;;;;;;;;;;5032962;28;20454;-82
2021/09/09 00:40:14;;;;;;;1999.90;999.90;;;;;;;;;;5033895;28;20496;-82
2021/09/09 00:42:41;;;;;;;1999.90;999.90;;;;;;;;;;5038138;28;20570;-82
2021/09/09 00:45:10;;;;;;;1999.90;999.90;;;;;;;;;;5052796;28;20455;-82
2021/09/09 00:47:37;;;;;;;1999.90;999.90;;;;;;;;;;5031339;28;20500;-82
2021/09/09 00:50:05;;;;;;;1999.90;999.90;;;;;;;;;;5033051;28;20447;-82
2021/09/09 00:52:32;;;;;;;1999.90;999.90;;;;;;;;;;5036466;28;20482;-82
2021/09/09 00:54:59;;;;;;;1999.90;999.90;;;;;;;;;;5052579;28;20448;-82
2021/09/09 00:57:26;;;;;;;1999.90;999.90;;;;;;;;;;5051952;28;20466;-82
2021/09/09 00:59:53;;;;;;;1999.90;999.90;;;;;;;;;;5052698;28;20496;-81
2021/09/09 01:02:22;;;;;;;1999.90;999.90;;;;;;;;;;5049807;28;20485;-81
2021/09/09 01:04:50;;;;;;;1999.90;999.90;;;;;;;;;;5033514;28;20547;-82
2021/09/09 01:07:17;;;;;;;1999.90;999.90;;;;;;;;;;5033704;28;20536;-82
2021/09/09 01:09:44;;;;;;;1999.90;999.90;;;;;;;;;;5038131;28;20446;-82
2021/09/09 01:12:11;;;;;;;1999.90;999.90;;;;;;;;;;5038486;28;20481;-81
2021/09/09 01:14:40;;;;;;;1999.90;999.90;;;;;;;;;;5051591;28;20472;-82
2021/09/09 01:17:07;;;;;;;1999.90;999.90;;;;;;;;;;5035781;28;20459;-82
2021/09/09 01:19:36;;;;;;;1999.90;999.90;;;;;;;;;;5035467;28;20445;-83
2021/09/09 01:22:03;;;;;;;1999.90;999.90;;;;;;;;;;5034948;28;20466;-82
2021/09/09 01:24:31;;;;;;;1999.90;999.90;;;;;;;;;;5035786;28;20538;-82
2021/09/09 01:27:00;;;;;;;1999.90;999.90;;;;;;;;;;5034209;28;20459;-83
2021/09/09 01:29:30;;;;;;;1999.90;999.90;;;;;;;;;;5035201;28;20468;-81
2021/09/09 01:31:57;;;;;;;1999.90;999.90;;;;;;;;;;5025099;28;20482;-83
2021/09/09 01:34:25;;;;;;;1999.90;999.90;;;;;;;;;;5038577;28;20454;-83
2021/09/09 01:36:52;;;;;;;1999.90;999.90;;;;;;;;;;5030564;28;20546;-82
2021/09/09 01:39:20;;;;;;;1999.90;999.90;;;;;;;;;;5038934;28;20462;-82
2021/09/09 01:41:51;;;;;;;1999.90;999.90;;;;;;;;;;5039645;28;20493;-82
2021/09/09 01:44:18;;;;;;;1999.90;999.90;;;;;;;;;;5039555;28;20460;-82
2021/09/09 01:46:45;;;;;;;1999.90;999.90;;;;;;;;;;5039145;28;20457;-81
2021/09/09 01:49:13;;;;;;;1999.90;999.90;;;;;;;;;;5039861;28;20523;-82
2021/09/09 01:51:40;;;;;;;1999.90;999.90;;;;;;;;;;5040640;28;20508;-82
2021/09/09 01:54:07;;;;;;;1999.90;999.90;;;;;;;;;;5040908;28;20965;-83
2021/09/09 01:56:34;;;;;;;1999.90;999.90;;;;;;;;;;5039170;28;20986;-83
2021/09/09 01:59:03;;;;;;;1999.90;999.90;;;;;;;;;;5040754;28;21009;-82
2021/09/09 02:01:30;;;;;;;1999.90;999.90;;;;;;;;;;5039698;28;20494;-83
2021/09/09 02:03:58;;;;;;;1999.90;999.90;;;;;;;;;;5054571;28;20468;-81
2021/09/09 02:06:25;;;;;;;1999.90;999.90;;;;;;;;;;5059029;28;20455;-82
2021/09/09 02:08:52;;;;;;;1999.90;999.90;;;;;;;;;;5059170;28;20459;-83
2021/09/09 02:11:20;;;;;;;1999.90;999.90;;;;;;;;;;5058452;28;20454;-82
2021/09/09 02:13:48;;;;;;;1999.90;999.90;;;;;;;;;;5045541;28;20470;-82
2021/09/09 02:16:16;;;;;;;1999.90;999.90;;;;;;;;;;5037533;28;20512;-86
2021/09/09 02:18:44;;;;;;;1999.90;999.90;;;;;;;;;;5039654;28;20819;-82
2021/09/09 02:21:11;;;;;;;1999.90;999.90;;;;;;;;;;5037762;28;20486;-82
2021/09/09 02:23:38;;;;;;;1999.90;999.90;;;;;;;;;;5048836;28;20472;-81
2021/09/09 02:26:05;;;;;;;1999.90;999.90;;;;;;;;;;5058022;28;20451;-81
2021/09/09 02:28:33;;;;;;;1999.90;999.90;;;;;;;;;;5058081;28;20459;-81
2021/09/09 02:31:00;;;;;;;1999.90;999.90;;;;;;;;;;5053362;28;20437;-82
2021/09/09 02:33:29;;;;;;;1999.90;999.90;;;;;;;;;;5045060;28;20474;-81
2021/09/09 02:35:56;;;;;;;1999.90;999.90;;;;;;;;;;5058290;28;20440;-82
2021/09/09 02:38:23;;;;;;;1999.90;999.90;;;;;;;;;;5057197;28;20970;-81
2021/09/09 02:40:50;;;;;;;1999.90;999.90;;;;;;;;;;5057925;28;20516;-81
2021/09/09 02:43:17;;;;;;;1999.90;999.90;;;;;;;;;;5048330;28;20567;-82
2021/09/09 02:45:44;;;;;;;1999.90;999.90;;;;;;;;;;5037703;28;20555;-81
2021/09/09 02:48:11;;;;;;;1999.90;999.90;;;;;;;;;;5036271;28;20842;-81
2021/09/09 02:50:40;;;;;;;1999.90;999.90;;;;;;;;;;5037607;28;20455;-82
2021/09/09 02:53:07;;;;;;;1999.90;999.90;;;;;;;;;;5042319;28;20471;-82
2021/09/09 02:55:34;;;;;;;1999.90;999.90;;;;;;;;;;5056744;28;20464;-83
2021/09/09 02:58:01;;;;;;;1999.90;999.90;;;;;;;;;;5055549;28;20452;-81
2021/09/09 03:00:29;;;;;;;1999.90;999.90;;;;;;;;;;5056524;28;20488;-81
2021/09/09 03:02:56;;;;;;;1999.90;999.90;;;;;;;;;;5051353;28;20476;-81
2021/09/09 03:05:23;;;;;;;1999.90;999.90;;;;;;;;;;5033426;28;20465;-82
2021/09/09 03:07:51;;;;;;;1999.90;999.90;;;;;;;;;;5015853;28;20450;-81
2021/09/09 03:10:19;;;;;;;1999.90;999.90;;;;;;;;;;5017228;28;20454;-81
2021/09/09 03:12:46;;;;;;;1999.90;999.90;;;;;;;;;;5021990;28;20465;-83
2021/09/09 03:15:13;;;;;;;1999.90;999.90;;;;;;;;;;5056214;28;20444;-81
2021/09/09 03:17:40;;;;;;;1999.90;999.90;;;;;;;;;;5056006;28;20465;-83
2021/09/09 03:20:08;;;;;;;1999.90;999.90;;;;;;;;;;5056674;28;20835;-81
2021/09/09 03:22:35;;;;;;;1999.90;999.90;;;;;;;;;;5055102;28;20472;-82
2021/09/09 03:25:04;;;;;;;1999.90;999.90;;;;;;;;;;5036481;28;20462;-82
2021/09/09 03:27:31;;;;;;;1999.90;999.90;;;;;;;;;;5035695;28;20450;-81
2021/09/09 03:29:58;;;;;;;1999.90;999.90;;;;;;;;;;5036266;28;20450;-82
2021/09/09 03:32:25;;;;;;;1999.90;999.90;;;;;;;;;;5021519;28;20495;-81
2021/09/09 03:34:52;;;;;;;1999.90;999.90;;;;;;;;;;5036533;28;20455;-82
2021/09/09 03:37:19;;;;;;;1999.90;999.90;;;;;;;;;;5035230;28;20451;-84
2021/09/09 03:39:46;;;;;;;1999.90;999.90;;;;;;;;;;5036234;28;20456;-83
2021/09/09 03:42:15;;;;;;;1999.90;999.90;;;;;;;;;;5035588;28;20497;-83
2021/09/09 03:44:42;;;;;;;1999.90;999.90;;;;;;;;;;5054235;28;20454;-81
2021/09/09 03:47:09;;;;;;;1999.90;999.90;;;;;;;;;;5055686;28;20484;-81
2021/09/09 03:49:37;;;;;;;1999.90;999.90;;;;;;;;;;5056185;28;20455;-82
2021/09/09 03:52:04;;;;;;;1999.90;999.90;;;;;;;;;;5054721;28;20460;-82
2021/09/09 03:54:32;;;;;;;1999.90;999.90;;;;;;;;;;5051910;28;20447;-83
2021/09/09 03:56:59;;;;;;;1999.90;999.90;;;;;;;;;;5055323;28;20548;-82
2021/09/09 03:59:28;;;;;;;1999.90;999.90;;;;;;;;;;5055452;28;20478;-83
2021/09/09 04:01:55;;;;;;;1999.90;999.90;;;;;;;;;;5055242;28;20568;-82
2021/09/09 04:04:22;;;;;;;1999.90;999.90;;;;;;;;;;5040104;28;20542;-82
2021/09/09 04:06:49;;;;;;;1999.90;999.90;;;;;;;;;;5034926;28;20839;-80
2021/09/09 04:09:16;;;;;;;1999.90;999.90;;;;;;;;;;5035285;28;20466;-81
2021/09/09 04:11:43;;;;;;;1999.90;999.90;;;;;;;;;;5036597;28;20464;-80
2021/09/09 04:14:11;;;;;;;1999.90;999.90;;;;;;;;;;5050304;28;20452;-81
2021/09/09 04:16:40;;;;;;;1999.90;999.90;;;;;;;;;;5056841;28;20904;-81
2021/09/09 04:19:07;;;;;;;1999.90;999.90;;;;;;;;;;5057609;28;20451;-80
2021/09/09 04:21:34;;;;;;;1999.90;999.90;;;;;;;;;;5057967;28;20483;-79
2021/09/09 04:24:01;;;;;;;1999.90;999.90;;;;;;;;;;5045799;28;20844;-80
2021/09/09 04:26:28;;;;;;;1999.90;999.90;;;;;;;;;;5036530;28;20449;-79
2021/09/09 04:28:55;;;;;;;1999.90;999.90;;;;;;;;;;5038051;28;20452;-79
2021/09/09 04:31:22;;;;;;;1999.90;999.90;;;;;;;;;;5033124;28;20456;-80
2021/09/09 04:33:51;;;;;;;1999.90;999.90;;;;;;;;;;5031736;28;20463;-80
2021/09/09 04:36:18;;;;;;;1999.90;999.90;;;;;;;;;;5040161;28;20821;-79
2021/09/09 04:38:45;;;;;;;1999.90;999.90;;;;;;;;;;5038504;28;20454;-80
2021/09/09 04:41:14;;;;;;;1999.90;999.90;;;;;;;;;;5038298;28;20487;-79
2021/09/09 04:43:42;;;;;;;1999.90;999.90;;;;;;;;;;5071525;22;20494;-87
2021/09/09 04:46:09;;;;;;;1999.90;999.90;;;;;;;;;;5075599;28;20533;-87
2021/09/09 04:48:37;;;;;;;1999.90;999.90;;;;;;;;;;5076727;28;20455;-88
2021/09/09 04:51:06;;;;;;;1999.90;999.90;;;;;;;;;;5064281;28;20455;-86
2021/09/09 04:53:33;;;;;;;1999.90;999.90;;;;;;;;;;5069145;28;20885;-87
2021/09/09 04:56:00;;;;;;;1999.90;999.90;;;;;;;;;;5054034;28;20538;-88
2021/09/09 04:58:28;;;;;;;1999.90;999.90;;;;;;;;;;5053110;28;20446;-87
2021/09/09 05:00:55;;;;;;;1999.90;999.90;;;;;;;;;;5053899;28;20482;-88
2021/09/09 05:03:22;;;;;;;1999.90;999.90;;;;;;;;;;5053662;28;20478;-87
2021/09/09 05:05:49;;;;;;;1999.90;999.90;;;;;;;;;;5053089;28;20548;-88
2021/09/09 05:08:18;;;;;;;1999.90;999.90;;;;;;;;;;5051642;28;20551;-87
2021/09/09 05:10:45;;;;;;;1999.90;999.90;;;;;;;;;;5052847;28;20835;-88
2021/09/09 05:13:12;;;;;;;1999.90;999.90;;;;;;;;;;5055906;28;20477;-88
2021/09/09 05:15:39;;;;;;;1999.90;999.90;;;;;;;;;;5056338;28;20545;-87
2021/09/09 05:18:07;;;;;;;1999.90;999.90;;;;;;;;;;5058123;28;20454;-87
2021/09/09 05:20:34;;;;;;;1999.90;999.90;;;;;;;;;;5052016;28;20974;-87
2021/09/09 05:23:01;;;;;;;1999.90;999.90;;;;;;;;;;5054102;28;20468;-87
2021/09/09 05:25:29;;;;;;;1999.90;999.90;;;;;;;;;;5068513;28;20428;-88
2021/09/09 05:27:57;;;;;;;1999.90;999.90;;;;;;;;;;5066164;28;20453;-87
2021/09/09 05:30:27;;;;;;;1999.90;999.90;;;;;;;;;;5050696;28;20436;-87
2021/09/09 05:32:54;;;;;;;1999.90;999.90;;;;;;;;;;5052945;28;20477;-87
2021/09/09 05:35:21;;;;;;;1999.90;999.90;;;;;;;;;;5060501;28;20450;-87
2021/09/09 05:37:48;;;;;;;1999.90;999.90;;;;;;;;;;5050955;28;20465;-88
2021/09/09 05:40:15;;;;;;;1999.90;999.90;;;;;;;;;;5051991;28;20543;-88
2021/09/09 05:42:44;;;;;;;1999.90;999.90;;;;;;;;;;5052017;28;20484;-88
2021/09/09 05:45:12;;;;;;;1999.90;999.90;;;;;;;;;;5070324;28;20460;-87
2021/09/09 05:47:39;;;;;;;1999.90;999.90;;;;;;;;;;5058719;28;21193;-88
2021/09/09 05:50:06;;;;;;;1999.90;999.90;;;;;;;;;;5050186;28;20455;-85
2021/09/09 05:52:34;;;;;;;1999.90;999.90;;;;;;;;;;5050781;28;20455;-86
2021/09/09 05:55:01;;;;;;;1999.90;999.90;;;;;;;;;;5054868;28;20500;-86
2021/09/09 05:57:28;;;;;;;1999.90;999.90;;;;;;;;;;5050814;28;20830;-86
2021/09/09 05:59:56;;;;;;;1999.90;999.90;;;;;;;;;;5049313;28;20444;-86
2021/09/09 06:02:27;;;;;;;1999.90;999.90;;;;;;;;;;5050564;28;20517;-85
2021/09/09 06:04:55;;;;;;;1999.90;999.90;;;;;;;;;;5051261;28;20833;-86
2021/09/09 06:07:22;;;;;;;1999.90;999.90;;;;;;;;;;5049846;28;20452;-85
2021/09/09 06:09:49;;;;;;;1999.90;999.90;;;;;;;;;;5050524;28;20448;-85
2021/09/09 06:12:17;;;;;;;1999.90;999.90;;;;;;;;;;5050543;28;20447;-85
2021/09/09 06:14:44;;;;;;;1999.90;999.90;;;;;;;;;;5059641;28;20452;-85
2021/09/09 06:17:13;;;;;;;1999.90;999.90;;;;;;;;;;5049779;28;20457;-85
2021/09/09 06:19:40;;;;;;;1999.90;999.90;;;;;;;;;;5053286;28;20971;-86
2021/09/09 06:22:07;;;;;;;1999.90;999.90;;;;;;;;;;5054961;28;20485;-86
2021/09/09 06:24:34;;;;;;;1999.90;999.90;;;;;;;;;;5055291;28;21002;-86
2021/09/09 06:27:01;;;;;;;1999.90;999.90;;;;;;;;;;5069990;28;20453;-86
2021/09/09 06:29:28;;;;;;;1999.90;999.90;;;;;;;;;;5069430;28;20456;-85
2021/09/09 06:31:55;;;;;;;1999.90;999.90;;;;;;;;;;5063888;28;20458;-86
2021/09/09 06:34:24;;;;;;;1999.90;999.90;;;;;;;;;;5074770;28;20604;-87
2021/09/09 06:36:51;;;;;;;1999.90;999.90;;;;;;;;;;5082815;28;20447;-87
2021/09/09 06:39:19;;;;;;;1999.90;999.90;;;;;;;;;;5078574;28;20458;-85
2021/09/09 06:41:46;;;;;;;1999.90;999.90;;;;;;;;;;5079098;28;20486;-85
2021/09/09 06:44:14;;;;;;;1999.90;999.90;;;;;;;;;;5078378;28;20483;-85
2021/09/09 06:46:41;;;;;;;1999.90;999.90;;;;;;;;;;5078755;28;20452;-86
2021/09/09 06:49:08;;;;;;;1999.90;999.90;;;;;;;;;;5079914;28;20823;-85
2021/09/09 06:51:37;;;;;;;1999.90;999.90;;;;;;;;;;5078666;28;20458;-86
2021/09/09 06:54:04;;;;;;;1999.90;999.90;;;;;;;;;;5077476;28;20472;-86
2021/09/09 06:56:32;;;;;;;1999.90;999.90;;;;;;;;;;5073159;28;20452;-85
2021/09/09 06:58:59;;;;;;;1999.90;999.90;;;;;;;;;;5050186;28;20462;-85
2021/09/09 07:01:26;;;;;;;1999.90;999.90;;;;;;;;;;5059804;28;20493;-86
2021/09/09 07:03:53;;;;;;;1999.90;999.90;;;;;;;;;;5059541;28;20841;-86
2021/09/09 07:06:20;;;;;;;1999.90;999.90;;;;;;;;;;5057967;28;20470;-86
2021/09/09 07:08:49;;;;;;;1999.90;999.90;;;;;;;;;;5059571;28;20454;-86
2021/09/09 07:11:16;;;;;;;1999.90;999.90;;;;;;;;;;5060557;28;20444;-86
2021/09/09 07:13:43;;;;;;;1999.90;999.90;;;;;;;;;;5067169;28;20472;-86
2021/09/09 07:16:11;;;;;;;1999.90;999.90;;;;;;;;;;5082129;28;20452;-86
2021/09/09 07:18:39;;;;;;;1999.90;999.90;;;;;;;;;;5083510;28;20518;-86
2021/09/09 07:21:06;;;;;;;1999.90;999.90;;;;;;;;;;5095299;28;20448;-86
2021/09/09 07:23:34;;;;;;;1999.90;999.90;;;;;;;;;;5086600;28;20485;-85
2021/09/09 07:26:02;;;;;;;1999.90;999.90;;;;;;;;;;5076808;28;20451;-87
2021/09/09 07:28:29;;;;;;;1999.90;999.90;;;;;;;;;;5077171;28;20454;-86
2021/09/09 07:30:57;;;;;;;1999.90;999.90;;;;;;;;;;5077155;28;20451;-85
2021/09/09 07:33:24;;;;;;;1999.90;999.90;;;;;;;;;;5075478;28;20504;-85
2021/09/09 07:35:51;;;;;;;1999.90;999.90;;;;;;;;;;5058489;28;20448;-86
2021/09/09 07:38:18;;;;;;;1999.90;999.90;;;;;;;;;;5057946;28;20984;-85
2021/09/09 07:40:45;;;;;;;1999.90;999.90;;;;;;;;;;5058562;28;20487;-86
2021/09/09 07:43:14;;;;;;;1999.90;999.90;;;;;;;;;;5056611;28;20498;-85
2021/09/09 07:45:41;;;;;;;1999.90;999.90;;;;;;;;;;5037221;28;20454;-86
2021/09/09 07:48:08;;;;;;;1999.90;999.90;;;;;;;;;;5051110;28;20970;-85
2021/09/09 07:50:35;;;;;;;1999.90;999.90;;;;;;;;;;5077340;28;20457;-86
2021/09/09 07:53:02;;;;;;;1999.90;999.90;;;;;;;;;;5065422;28;20479;-85
2021/09/09 07:55:29;;;;;;;1999.90;999.90;;;;;;;;;;5076435;28;20446;-84
2021/09/09 07:57:56;;;;;;;1999.90;999.90;;;;;;;;;;5082429;28;20206;-86
2021/09/09 08:00:25;;;;;;;1999.90;999.90;;;;;;;;;;5084763;28;20454;-84
2021/09/09 08:02:52;;;;;;;1999.90;999.90;;;;;;;;;;5083805;28;20486;-85
2021/09/09 08:05:19;;;;;;;1999.90;999.90;;;;;;;;;;5064087;28;20483;-85
2021/09/09 08:07:47;;;;;;;1999.90;999.90;;;;;;;;;;5061151;28;20456;-85
2021/09/09 08:10:16;;;;;;;1999.90;999.90;;;;;;;;;;5059048;28;20760;-82
2021/09/09 08:12:43;;;;;;;1999.90;999.90;;;;;;;;;;5058343;28;20468;-85
2021/09/09 08:15:11;;;;;;;1999.90;999.90;;;;;;;;;;5059867;28;20832;-85
2021/09/09 08:17:39;;;;;;;1999.90;999.90;;;;;;;;;;5058384;28;20462;-84
2021/09/09 08:20:08;;;;;;;1999.90;999.90;;;;;;;;;;5056772;28;20456;-84
2021/09/09 08:22:35;;;;;;;1999.90;999.90;;;;;;;;;;5055432;28;20587;-84
2021/09/09 08:25:02;;;;;;;1999.90;999.90;;;;;;;;;;5069800;28;21021;-82
2021/09/09 08:27:31;;;;;;;1999.90;999.90;;;;;;;;;;5074219;28;20443;-85
2021/09/09 08:29:58;;;;;;;1999.90;999.90;;;;;;;;;;5075049;28;20459;-83
2021/09/09 08:32:25;;;;;;;1999.90;999.90;;;;;;;;;;5075473;28;20451;-83
2021/09/09 08:34:54;;;;;;;1999.90;999.90;;;;;;;;;;5075437;28;20455;-84
2021/09/09 08:37:22;;;;;;;1999.90;999.90;;;;;;;;;;5075483;28;20451;-82
2021/09/09 08:39:49;;;;;;;1999.90;999.90;;;;;;;;;;5077561;28;20553;-83
2021/09/09 08:42:17;;;;;;;1999.90;999.90;;;;;;;;;;5059337;28;20488;-84
2021/09/09 08:44:44;;;;;;;1999.90;999.90;;;;;;;;;;5068954;28;20459;-83
2021/09/09 08:47:12;;;;;;;1999.90;999.90;;;;;;;;;;5078531;28;20451;-83
2021/09/09 08:49:39;;;;;;;1999.90;999.90;;;;;;;;;;5064309;28;20487;-83
2021/09/09 08:52:08;;;;;;;1999.90;999.90;;;;;;;;;;5056518;28;20452;-86
2021/09/09 08:54:36;;;;;;;1999.90;999.90;;;;;;;;;;5052883;28;20516;-84
2021/09/09 08:57:03;;;;;;;1999.90;999.90;;;;;;;;;;5056583;28;20448;-84
2021/09/09 08:59:31;;;;;;;1999.90;999.90;;;;;;;;;;5050196;28;20457;-82
2021/09/09 09:02:05;;;;;;;1999.90;999.90;;;;;;;;;;5048979;28;20988;-83
2021/09/09 09:07:37;;;;;;;1999.90;999.90;;;;;;;;;;5052167;28;20429;-83
2021/09/09 09:10:06;;;;;;;1999.90;999.90;;;;;;;;;;5060767;28;20472;-86
2021/09/09 09:12:40;;;;;;;1999.90;999.90;;;;;;;;;;5067378;28;20463;-85
2021/09/09 09:15:11;;;;;;;1999.90;999.90;;;;;;;;;;5068611;28;20499;-88
2021/09/09 09:17:53;;;;;;;1999.90;999.90;;;;;;;;;;5071430;28;20543;-84
2021/09/09 09:20:20;;;;;;;1999.90;999.90;;;;;;;;;;5054467;28;20444;-86
2021/09/09 09:22:49;;;;;;;1999.90;999.90;;;;;;;;;;5049326;28;21465;-83
2021/09/09 09:25:16;;;;;;;1999.90;999.90;;;;;;;;;;5051442;28;20436;-84
2021/09/09 09:27:46;;;;;;;1999.90;999.90;;;;;;;;;;5064581;28;20799;-83
2021/09/09 09:30:14;;;;;;;1999.90;999.90;;;;;;;;;;5075277;28;20478;-84
2021/09/09 09:32:46;;;;;;;1999.90;999.90;;;;;;;;;;5074258;28;20564;-84
2021/09/09 09:35:14;;;;;;;1999.90;999.90;;;;;;;;;;5074350;28;20873;-83
2021/09/09 09:37:56;;;;;;;1999.90;999.90;;;;;;;;;;5093194;28;20509;-84
2021/09/09 09:40:24;;;;;;;1999.90;999.90;;;;;;;;;;5077935;28;21035;-84
2021/09/09 09:42:51;;;;;;;1999.90;999.90;;;;;;;;;;5059419;28;20496;-86
2021/09/09 09:45:18;;;;;;;1999.90;999.90;;;;;;;;;;5052825;28;20534;-84
2021/09/09 09:47:45;;;;;;;1999.90;999.90;;;;;;;;;;5060797;28;20511;-85
2021/09/09 09:50:19;;;;;;;1999.90;999.90;;;;;;;;;;5061190;28;20531;-83
2021/09/09 09:52:46;;;;;;;1999.90;999.90;;;;;;;;;;5054412;28;20476;-84
2021/09/09 09:55:15;;;;;;;1999.90;999.90;;;;;;;;;;5067472;28;20440;-86
2021/09/09 09:57:52;;;;;;;1999.90;999.90;;;;;;;;;;5061408;28;20455;-84
2021/09/09 10:00:19;;;;;;;1999.90;999.90;;;;;;;;;;5059690;28;20445;-84
2021/09/09 10:02:46;;;;;;;1999.90;999.90;;;;;;;;;;5064855;28;20503;-85
2021/09/09 10:05:14;;;;;;;1999.90;999.90;;;;;;;;;;5063491;28;20454;-84
2021/09/09 10:07:41;;;;;;;1999.90;999.90;;;;;;;;;;5060188;28;21027;-84
2021/09/09 10:10:09;;;;;;;1999.90;999.90;;;;;;;;;;5065066;28;20456;-85
2021/09/09 10:12:37;;;;;;;1999.90;999.90;;;;;;;;;;5066380;28;20491;-84
2021/09/09 10:15:07;;;;;;;1999.90;999.90;;;;;;;;;;5065463;28;20458;-86
2021/09/09 10:17:35;;;;;;;1999.90;999.90;;;;;;;;;;5057621;28;20456;-83
2021/09/09 10:20:17;;;;;;;1999.90;999.90;;;;;;;;;;5068413;28;20454;-84
2021/09/09 10:23:00;;;;;;;1999.90;999.90;;;;;;;;;;5056653;28;20556;-84
2021/09/09 10:25:40;;;;;;;1999.90;999.90;;;;;;;;;;5056236;28;20463;-85
2021/09/09 10:28:23;;;;;;;820.37;768.87;;;;;;;;;;5058805;28;20459;-84
2021/09/09 10:31:04;;;;;;;707.10;660.23;;;;;;;;;;5064572;28;20503;-84
2021/09/09 10:33:31;;;;;;;758.67;710.77;;;;;;;;;;5067348;28;20499;-84
2021/09/09 10:35:59;;;;;;;736.33;688.20;;;;;;;;;;5071070;28;20517;-85
2021/09/09 10:38:28;;;;;;;860.67;806.43;;;;;;;;;;5087133;28;20442;-84
2021/09/09 10:40:55;;;;;;;809.53;759.23;;;;;;;;;;5082451;28;20436;-84
2021/09/09 10:43:44;;;;;;;633.10;595.60;;;;;;;;;;5098700;22;20529;-83
2021/09/09 10:46:13;;;;;;;879.80;815.70;;;;;;;;;;5045402;28;20453;-83
2021/09/09 10:48:43;;;;;;;935.20;866.80;;;;;;;;;;5050779;28;20453;-84
2021/09/09 10:51:12;;;;;;;744.93;696.77;;;;;;;;;;5049081;28;20460;-83
2021/09/09 10:53:40;;;;;;;770.77;722.07;;;;;;;;;;5042714;28;20485;-84
2021/09/09 10:56:11;;;;;;;759.20;715.73;;;;;;;;;;5029020;28;20521;-85
2021/09/09 10:58:38;;;;;;;765.47;715.03;;;;;;;;;;5033329;28;20453;-84
2021/09/09 11:01:06;;;;;;;826.80;774.63;;;;;;;;;;5046769;28;21027;-84
2021/09/09 11:03:42;;;;;;;829.97;775.90;;;;;;;;;;5046964;28;20517;-83
2021/09/09 11:06:10;;;;;;;809.40;756.90;;;;;;;;;;5027863;28;20464;-83
2021/09/09 11:08:38;;;;;;;822.77;773.30;;;;;;;;;;5030214;28;20484;-84
2021/09/09 11:11:06;;;;;;;807.17;758.17;;;;;;;;;;5030933;28;20529;-83
2021/09/09 11:13:33;;;;;;;813.03;760.23;;;;;;;;;;5027235;28;20458;-83
2021/09/09 11:16:01;;;;;;;784.23;736.80;;;;;;;;;;5007446;28;20581;-84
2021/09/09 11:18:29;;;;;;;851.53;797.30;;;;;;;;;;5007392;28;20514;-83
2021/09/09 11:21:04;;;;;;;890.83;835.23;;;;;;;;;;5008804;28;20550;-83
2021/09/09 11:23:31;;;;;;;835.33;783.93;;;;;;;;;;5007121;28;20498;-83
2021/09/09 11:26:09;;;;;;;872.37;818.60;;;;;;;;;;5023939;28;20468;-84
2021/09/09 11:28:36;;;;;;;919.20;856.50;;;;;;;;;;5024868;28;20496;-82
2021/09/09 11:31:10;;;;;;;927.63;869.77;;;;;;;;;;5022620;28;20517;-81
2021/09/09 11:33:51;;;;;;;928.37;871.00;;;;;;;;;;5018534;28;20553;-84
2021/09/09 11:36:19;;;;;;;872.30;818.13;;;;;;;;;;5024647;28;20461;-82
2021/09/09 11:38:47;;;;;;;855.00;803.33;;;;;;;;;;5027199;28;20506;-83
2021/09/09 11:41:15;;;;;;;911.70;854.73;;;;;;;;;;5026608;28;20446;-84
2021/09/09 11:43:48;;;;;;;917.30;858.53;;;;;;;;;;5024990;28;20545;-83
2021/09/09 11:46:23;;;;;;;899.93;846.07;;;;;;;;;;5021296;28;20498;-83
2021/09/09 11:48:51;;;;;;;1025.93;953.73;;;;;;;;;;5027270;28;20480;-84
2021/09/09 11:51:30;;;;;;;686.30;648.70;;;;;;;;;;5026969;28;20442;-84
2021/09/09 11:53:58;;;;;;;675.00;637.33;;;;;;;;;;5026925;28;20537;-84
2021/09/09 11:56:25;;;;;;;501.10;471.90;;;;;;;;;;5008745;28;20524;-84
2021/09/09 11:58:52;;;;;;;488.27;461.90;;;;;;;;;;5008515;28;20459;-85
2021/09/09 12:01:20;;;;;;;824.20;775.90;;;;;;;;;;5010442;28;20450;-83
2021/09/09 12:03:47;;;;;;;427.10;403.23;;;;;;;;;;5029318;28;20520;-84
2021/09/09 12:06:17;;;;;;;304.23;286.50;;;;;;;;;;5014343;28;20514;-84
2021/09/09 12:08:47;;;;;;;413.90;391.13;;;;;;;;;;5008079;28;20458;-84
2021/09/09 12:11:14;;;;;;;165.80;154.47;;;;;;;;;;5009297;28;20446;-83
2021/09/09 12:13:43;;;;;;;75.33;60.27;;;;;;;;;;5007441;28;20467;-84
2021/09/09 12:16:15;;;;;;;70.67;42.37;;;;;;;;;;5023007;28;20479;-82
2021/09/09 12:18:43;;;;;;;92.03;82.93;;;;;;;;;;5025890;28;20442;-84
2021/09/09 12:21:11;;;;;;;193.20;180.27;;;;;;;;;;5027430;28;20509;-84
2021/09/09 12:23:38;;;;;;;352.63;332.40;;;;;;;;;;5027372;28;20520;-84
2021/09/09 12:26:17;;;;;;;486.40;460.20;;;;;;;;;;5015351;28;20442;-84
2021/09/09 12:28:44;;;;;;;210.87;197.93;;;;;;;;;;5028473;28;20456;-83
2021/09/09 12:31:11;;;;;;;376.80;357.37;;;;;;;;;;5027406;28;20453;-84
2021/09/09 12:33:39;;;;;;;608.53;575.07;;;;;;;;;;5027202;28;20537;-84
2021/09/09 12:36:08;;;;;;;806.17;758.33;;;;;;;;;;5027133;28;20453;-84
2021/09/09 12:38:38;;;;;;;562.87;534.90;;;;;;;;;;5028409;28;20493;-83
2021/09/09 12:41:06;;;;;;;552.97;523.57;;;;;;;;;;5025187;28;20457;-84
2021/09/09 12:43:35;;;;;;;588.43;557.50;;;;;;;;;;5028555;28;20465;-83
2021/09/09 12:46:04;;;;;;;829.17;782.27;;;;;;;;;;5027581;28;20446;-85
2021/09/09 12:48:32;;;;;;;637.67;603.83;;;;;;;;;;5028982;28;20887;-84
2021/09/09 12:51:01;;;;;;;717.30;676.93;;;;;;;;;;5029794;28;20513;-84
2021/09/09 12:53:29;;;;;;;662.13;625.70;;;;;;;;;;5012965;28;20485;-85
2021/09/09 12:56:00;;;;;;;246.13;231.67;;;;;;;;;;5022489;28;20533;-84
2021/09/09 12:58:27;;;;;;;634.07;602.23;;;;;;;;;;5021847;28;20458;-83
2021/09/09 13:00:58;;;;;;;252.40;236.57;;;;;;;;;;5018864;28;20446;-84
2021/09/09 13:03:26;;;;;;;438.47;413.57;;;;;;;;;;5019226;28;20531;-84
2021/09/09 13:05:53;;;;;;;238.47;224.37;;;;;;;;;;5022157;28;20470;-84
2021/09/09 13:08:20;;;;;;;527.57;500.83;;;;;;;;;;5024071;28;20441;-83
2021/09/09 13:10:47;;;;;;;633.10;599.73;;;;;;;;;;5026322;28;20454;-84
2021/09/09 13:13:15;;;;;;;552.13;519.70;;;;;;;;;;5025516;28;20529;-82
2021/09/09 13:15:42;;;;;;;645.27;610.13;;;;;;;;;;5013249;28;20459;-84
2021/09/09 13:18:11;;;;;;;811.80;764.63;;;;;;;;;;5005938;28;20450;-83
2021/09/09 13:20:38;;;;;;;828.13;776.17;;;;;;;;;;5005683;28;20510;-85
2021/09/09 13:23:06;;;;;;;927.70;868.93;;;;;;;;;;5004390;28;20502;-85
2021/09/09 13:25:34;;;;;;;848.67;799.50;;;;;;;;;;5013502;28;20826;-83
2021/09/09 13:28:01;;;;;;;887.93;832.83;;;;;;;;;;5024561;28;20466;-83
2021/09/09 13:30:29;;;;;;;1009.83;940.53;;;;;;;;;;5027237;28;20460;-84
2021/09/09 13:32:56;;;;;;;643.43;609.97;;;;;;;;;;5028894;28;20517;-84
2021/09/09 13:35:24;;;;;;;745.97;703.07;;;;;;;;;;5024644;28;20469;-84
2021/09/09 13:37:52;;;;;;;753.03;708.90;;;;;;;;;;5008194;28;20959;-84
2021/09/09 13:40:19;;;;;;;537.73;508.83;;;;;;;;;;5010052;28;20489;-83
2021/09/09 13:42:46;;;;;;;732.03;692.07;;;;;;;;;;5025307;28;20541;-84
2021/09/09 13:45:13;;;;;;;489.90;465.57;;;;;;;;;;5026910;28;20491;-83
2021/09/09 13:47:40;;;;;;;492.40;468.30;;;;;;;;;;5026635;28;20456;-83
2021/09/09 13:50:08;;;;;;;631.47;597.77;;;;;;;;;;5027240;28;21086;-83
2021/09/09 13:52:37;;;;;;;670.37;633.50;;;;;;;;;;5027768;28;20437;-82